sensor_id;sensor_type;location;lat;lon;timestamp;temperature;humidity
67192;HTU21D;54120;53.504;49.426;2023-04-25T00:00:40;13.37;59.97
67192;HTU21D;54120;53.504;49.426;2023-04-25T00:03:06;13.37;60.06
67192;HTU21D;54120;53.504;49.426;2023-04-25T00:05:35;13.27;60.39
67192;HTU21D;54120;53.504;49.426;2023-04-25T00:08:03;13.34;60.00
67192;HTU21D;54120;53.504;49.426;2023-04-25T00:10:31;13.38;59.84
67192;HTU21D;54120;53.504;49.426;2023-04-25T00:12:57;13.30;60.29
67192;HTU21D;54120;53.504;49.426;2023-04-25T00:15:24;13.37;60.19
67192;HTU21D;54120;53.504;49.426;2023-04-25T00:17:51;13.36;59.94
67192;HTU21D;54120;53.504;49.426;2023-04-25T00:20:18;13.48;59.46
67192;HTU21D;54120;53.504;49.426;2023-04-25T00:22:45;13.51;59.67
67192;HTU21D;54120;53.504;49.426;2023-04-25T00:25:11;13.52;59.35
67192;HTU21D;54120;53.504;49.426;2023-04-25T00:27:38;13.60;59.19
67192;HTU21D;54120;53.504;49.426;2023-04-25T00:30:05;13.66;59.03
67192;HTU21D;54120;53.504;49.426;2023-04-25T00:32:32;13.69;59.04
67192;HTU21D;54120;53.504;49.426;2023-04-25T00:34:59;13.68;58.99
67192;HTU21D;54120;53.504;49.426;2023-04-25T00:37:25;13.68;58.95
67192;HTU21D;54120;53.504;49.426;2023-04-25T00:39:52;13.74;58.81
67192;HTU21D;54120;53.504;49.426;2023-04-25T00:42:21;13.76;58.84
67192;HTU21D;54120;53.504;49.426;2023-04-25T00:44:48;13.70;59.17
67192;HTU21D;54120;53.504;49.426;2023-04-25T00:47:15;13.73;59.00
67192;HTU21D;54120;53.504;49.426;2023-04-25T00:49:43;13.67;59.47
67192;HTU21D;54120;53.504;49.426;2023-04-25T00:52:10;13.63;59.37
67192;HTU21D;54120;53.504;49.426;2023-04-25T00:54:37;13.56;59.54
67192;HTU21D;54120;53.504;49.426;2023-04-25T00:57:04;13.60;59.77
67192;HTU21D;54120;53.504;49.426;2023-04-25T00:59:30;13.53;60.01
67192;HTU21D;54120;53.504;49.426;2023-04-25T01:01:58;13.51;59.96
67192;HTU21D;54120;53.504;49.426;2023-04-25T01:04:27;13.51;59.92
67192;HTU21D;54120;53.504;49.426;2023-04-25T01:06:54;13.50;60.04
67192;HTU21D;54120;53.504;49.426;2023-04-25T01:09:20;13.40;60.29
67192;HTU21D;54120;53.504;49.426;2023-04-25T01:11:49;13.38;60.51
67192;HTU21D;54120;53.504;49.426;2023-04-25T01:14:16;13.44;60.21
67192;HTU21D;54120;53.504;49.426;2023-04-25T01:16:42;13.45;60.14
67192;HTU21D;54120;53.504;49.426;2023-04-25T01:19:09;13.46;60.38
67192;HTU21D;54120;53.504;49.426;2023-04-25T01:21:39;13.39;60.47
67192;HTU21D;54120;53.504;49.426;2023-04-25T01:24:06;13.43;60.38
67192;HTU21D;54120;53.504;49.426;2023-04-25T01:26:35;13.46;60.48
67192;HTU21D;54120;53.504;49.426;2023-04-25T01:29:03;13.46;60.47
67192;HTU21D;54120;53.504;49.426;2023-04-25T01:31:30;13.47;60.66
67192;HTU21D;54120;53.504;49.426;2023-04-25T01:33:57;13.40;60.80
67192;HTU21D;54120;53.504;49.426;2023-04-25T01:36:23;13.47;60.60
67192;HTU21D;54120;53.504;49.426;2023-04-25T01:38:50;13.52;60.35
67192;HTU21D;54120;53.504;49.426;2023-04-25T01:41:16;13.52;60.28
67192;HTU21D;54120;53.504;49.426;2023-04-25T01:43:44;13.58;60.05
67192;HTU21D;54120;53.504;49.426;2023-04-25T01:46:12;13.60;60.03
67192;HTU21D;54120;53.504;49.426;2023-04-25T01:48:38;13.58;60.40
67192;HTU21D;54120;53.504;49.426;2023-04-25T01:51:05;13.59;60.21
67192;HTU21D;54120;53.504;49.426;2023-04-25T01:53:31;13.69;60.03
67192;HTU21D;54120;53.504;49.426;2023-04-25T01:55:57;13.69;60.07
67192;HTU21D;54120;53.504;49.426;2023-04-25T01:58:24;13.73;60.07
67192;HTU21D;54120;53.504;49.426;2023-04-25T02:00:50;13.69;60.42
67192;HTU21D;54120;53.504;49.426;2023-04-25T02:03:17;13.64;60.53
67192;HTU21D;54120;53.504;49.426;2023-04-25T02:05:43;13.71;60.34
67192;HTU21D;54120;53.504;49.426;2023-04-25T02:08:09;13.70;60.54
67192;HTU21D;54120;53.504;49.426;2023-04-25T02:10:36;13.79;60.50
67192;HTU21D;54120;53.504;49.426;2023-04-25T02:13:02;13.78;60.76
67192;HTU21D;54120;53.504;49.426;2023-04-25T02:15:30;13.78;61.42
67192;HTU21D;54120;53.504;49.426;2023-04-25T02:17:56;13.74;61.25
67192;HTU21D;54120;53.504;49.426;2023-04-25T02:20:24;13.75;61.21
67192;HTU21D;54120;53.504;49.426;2023-04-25T02:22:50;13.74;61.40
67192;HTU21D;54120;53.504;49.426;2023-04-25T02:25:18;13.76;61.47
67192;HTU21D;54120;53.504;49.426;2023-04-25T02:27:46;13.78;61.76
67192;HTU21D;54120;53.504;49.426;2023-04-25T02:30:12;13.81;61.27
67192;HTU21D;54120;53.504;49.426;2023-04-25T02:32:39;13.84;61.32
67192;HTU21D;54120;53.504;49.426;2023-04-25T02:35:06;13.85;62.21
67192;HTU21D;54120;53.504;49.426;2023-04-25T02:37:33;13.83;61.63
67192;HTU21D;54120;53.504;49.426;2023-04-25T02:40:00;13.91;62.38
67192;HTU21D;54120;53.504;49.426;2023-04-25T02:42:27;13.90;62.18
67192;HTU21D;54120;53.504;49.426;2023-04-25T02:44:53;13.92;61.77
67192;HTU21D;54120;53.504;49.426;2023-04-25T02:47:20;13.96;62.09
67192;HTU21D;54120;53.504;49.426;2023-04-25T02:49:46;13.98;62.66
67192;HTU21D;54120;53.504;49.426;2023-04-25T02:52:12;14.00;62.12
67192;HTU21D;54120;53.504;49.426;2023-04-25T02:54:39;14.01;63.24
67192;HTU21D;54120;53.504;49.426;2023-04-25T02:57:06;13.99;62.44
67192;HTU21D;54120;53.504;49.426;2023-04-25T02:59:32;14.01;61.94
67192;HTU21D;54120;53.504;49.426;2023-04-25T03:01:59;14.06;62.88
67192;HTU21D;54120;53.504;49.426;2023-04-25T03:04:25;14.07;62.76
67192;HTU21D;54120;53.504;49.426;2023-04-25T03:06:51;14.07;63.91
67192;HTU21D;54120;53.504;49.426;2023-04-25T03:09:18;14.01;64.01
67192;HTU21D;54120;53.504;49.426;2023-04-25T03:11:45;13.99;64.50
67192;HTU21D;54120;53.504;49.426;2023-04-25T03:14:12;13.98;63.92
67192;HTU21D;54120;53.504;49.426;2023-04-25T03:16:38;13.98;64.35
67192;HTU21D;54120;53.504;49.426;2023-04-25T03:19:04;14.01;63.15
67192;HTU21D;54120;53.504;49.426;2023-04-25T03:21:32;14.01;63.47
67192;HTU21D;54120;53.504;49.426;2023-04-25T03:24:00;14.04;63.44
67192;HTU21D;54120;53.504;49.426;2023-04-25T03:26:26;14.05;62.66
67192;HTU21D;54120;53.504;49.426;2023-04-25T03:28:52;14.01;63.27
67192;HTU21D;54120;53.504;49.426;2023-04-25T03:31:18;13.90;64.27
67192;HTU21D;54120;53.504;49.426;2023-04-25T03:33:44;13.81;65.28
67192;HTU21D;54120;53.504;49.426;2023-04-25T03:36:10;13.73;66.55
67192;HTU21D;54120;53.504;49.426;2023-04-25T03:38:36;13.68;65.43
67192;HTU21D;54120;53.504;49.426;2023-04-25T03:41:02;13.76;65.21
67192;HTU21D;54120;53.504;49.426;2023-04-25T03:43:29;13.81;66.35
67192;HTU21D;54120;53.504;49.426;2023-04-25T03:45:56;13.86;66.27
67192;HTU21D;54120;53.504;49.426;2023-04-25T03:48:24;13.88;65.95
67192;HTU21D;54120;53.504;49.426;2023-04-25T03:50:52;13.86;66.35
67192;HTU21D;54120;53.504;49.426;2023-04-25T03:53:18;13.82;67.03
67192;HTU21D;54120;53.504;49.426;2023-04-25T03:55:45;13.79;66.67
67192;HTU21D;54120;53.504;49.426;2023-04-25T03:58:11;13.81;67.02
67192;HTU21D;54120;53.504;49.426;2023-04-25T04:00:39;13.81;67.07
67192;HTU21D;54120;53.504;49.426;2023-04-25T04:03:05;13.90;68.43
67192;HTU21D;54120;53.504;49.426;2023-04-25T04:05:31;13.96;66.73
67192;HTU21D;54120;53.504;49.426;2023-04-25T04:07:59;13.97;66.92
67192;HTU21D;54120;53.504;49.426;2023-04-25T04:10:25;13.92;67.14
67192;HTU21D;54120;53.504;49.426;2023-04-25T04:12:52;13.86;67.41
67192;HTU21D;54120;53.504;49.426;2023-04-25T04:15:18;13.80;68.36
67192;HTU21D;54120;53.504;49.426;2023-04-25T04:17:44;13.86;68.36
67192;HTU21D;54120;53.504;49.426;2023-04-25T04:20:10;13.91;66.78
67192;HTU21D;54120;53.504;49.426;2023-04-25T04:22:36;13.85;66.68
67192;HTU21D;54120;53.504;49.426;2023-04-25T04:25:04;13.95;66.72
67192;HTU21D;54120;53.504;49.426;2023-04-25T04:27:32;14.14;66.84
67192;HTU21D;54120;53.504;49.426;2023-04-25T04:30:00;14.26;65.82
67192;HTU21D;54120;53.504;49.426;2023-04-25T04:32:29;14.47;65.41
67192;HTU21D;54120;53.504;49.426;2023-04-25T04:34:56;14.81;64.18
67192;HTU21D;54120;53.504;49.426;2023-04-25T04:37:22;14.87;62.10
67192;HTU21D;54120;53.504;49.426;2023-04-25T04:39:49;14.78;63.88
67192;HTU21D;54120;53.504;49.426;2023-04-25T04:42:15;14.77;64.00
67192;HTU21D;54120;53.504;49.426;2023-04-25T04:44:43;14.70;63.63
67192;HTU21D;54120;53.504;49.426;2023-04-25T04:47:11;14.66;63.03
67192;HTU21D;54120;53.504;49.426;2023-04-25T04:49:40;14.73;63.55
67192;HTU21D;54120;53.504;49.426;2023-04-25T04:52:07;14.89;63.91
67192;HTU21D;54120;53.504;49.426;2023-04-25T04:54:33;14.95;61.73
67192;HTU21D;54120;53.504;49.426;2023-04-25T04:57:01;15.12;61.05
67192;HTU21D;54120;53.504;49.426;2023-04-25T04:59:27;15.16;60.24
67192;HTU21D;54120;53.504;49.426;2023-04-25T05:01:53;15.30;60.50
67192;HTU21D;54120;53.504;49.426;2023-04-25T05:04:19;15.59;59.76
67192;HTU21D;54120;53.504;49.426;2023-04-25T05:06:45;16.03;57.67
67192;HTU21D;54120;53.504;49.426;2023-04-25T05:09:11;16.26;56.83
67192;HTU21D;54120;53.504;49.426;2023-04-25T05:11:37;16.82;55.58
67192;HTU21D;54120;53.504;49.426;2023-04-25T05:14:03;17.40;53.89
67192;HTU21D;54120;53.504;49.426;2023-04-25T05:16:30;17.65;53.56
67192;HTU21D;54120;53.504;49.426;2023-04-25T05:18:56;17.82;53.48
67192;HTU21D;54120;53.504;49.426;2023-04-25T05:21:22;17.96;52.67
67192;HTU21D;54120;53.504;49.426;2023-04-25T05:23:48;17.95;52.51
67192;HTU21D;54120;53.504;49.426;2023-04-25T05:26:14;17.77;53.02
67192;HTU21D;54120;53.504;49.426;2023-04-25T05:28:41;17.36;54.55
67192;HTU21D;54120;53.504;49.426;2023-04-25T05:31:09;16.79;56.54
67192;HTU21D;54120;53.504;49.426;2023-04-25T05:33:35;16.61;56.41
67192;HTU21D;54120;53.504;49.426;2023-04-25T05:36:01;16.49;56.97
67192;HTU21D;54120;53.504;49.426;2023-04-25T05:38:27;16.45;56.96
67192;HTU21D;54120;53.504;49.426;2023-04-25T05:40:53;16.77;56.43
67192;HTU21D;54120;53.504;49.426;2023-04-25T05:43:19;17.33;54.57
67192;HTU21D;54120;53.504;49.426;2023-04-25T05:45:45;17.89;52.80
67192;HTU21D;54120;53.504;49.426;2023-04-25T05:48:13;18.04;52.41
67192;HTU21D;54120;53.504;49.426;2023-04-25T05:50:39;17.99;52.14
67192;HTU21D;54120;53.504;49.426;2023-04-25T05:53:05;17.97;52.88
67192;HTU21D;54120;53.504;49.426;2023-04-25T05:55:32;17.76;54.11
67192;HTU21D;54120;53.504;49.426;2023-04-25T05:57:58;17.70;53.49
67192;HTU21D;54120;53.504;49.426;2023-04-25T06:00:24;17.68;53.95
67192;HTU21D;54120;53.504;49.426;2023-04-25T06:02:51;17.69;53.90
67192;HTU21D;54120;53.504;49.426;2023-04-25T06:05:17;17.85;53.46
67192;HTU21D;54120;53.504;49.426;2023-04-25T06:07:43;17.92;53.22
67192;HTU21D;54120;53.504;49.426;2023-04-25T06:10:10;17.95;53.65
67192;HTU21D;54120;53.504;49.426;2023-04-25T06:12:36;18.47;52.40
67192;HTU21D;54120;53.504;49.426;2023-04-25T06:15:05;18.48;51.96
67192;HTU21D;54120;53.504;49.426;2023-04-25T06:17:32;18.35;52.49
67192;HTU21D;54120;53.504;49.426;2023-04-25T06:19:58;18.04;53.40
67192;HTU21D;54120;53.504;49.426;2023-04-25T06:22:25;18.08;53.39
67192;HTU21D;54120;53.504;49.426;2023-04-25T06:24:51;18.10;53.10
67192;HTU21D;54120;53.504;49.426;2023-04-25T06:27:18;18.21;53.41
67192;HTU21D;54120;53.504;49.426;2023-04-25T06:29:44;18.44;52.53
67192;HTU21D;54120;53.504;49.426;2023-04-25T06:32:11;18.22;53.31
67192;HTU21D;54120;53.504;49.426;2023-04-25T06:34:37;18.25;53.36
67192;HTU21D;54120;53.504;49.426;2023-04-25T06:37:03;17.88;54.69
67192;HTU21D;54120;53.504;49.426;2023-04-25T06:39:30;17.74;55.34
67192;HTU21D;54120;53.504;49.426;2023-04-25T06:41:56;17.72;55.09
67192;HTU21D;54120;53.504;49.426;2023-04-25T06:44:23;17.67;54.86
67192;HTU21D;54120;53.504;49.426;2023-04-25T06:46:52;17.65;55.10
67192;HTU21D;54120;53.504;49.426;2023-04-25T06:49:18;17.54;56.10
67192;HTU21D;54120;53.504;49.426;2023-04-25T06:51:45;17.51;55.73
67192;HTU21D;54120;53.504;49.426;2023-04-25T06:54:11;17.45;56.17
67192;HTU21D;54120;53.504;49.426;2023-04-25T06:56:38;17.23;57.59
67192;HTU21D;54120;53.504;49.426;2023-04-25T06:59:04;17.07;59.10
67192;HTU21D;54120;53.504;49.426;2023-04-25T07:01:31;16.96;58.38
67192;HTU21D;54120;53.504;49.426;2023-04-25T07:03:57;16.87;59.35
67192;HTU21D;54120;53.504;49.426;2023-04-25T07:06:23;16.95;59.42
67192;HTU21D;54120;53.504;49.426;2023-04-25T07:08:51;16.93;59.71
67192;HTU21D;54120;53.504;49.426;2023-04-25T07:11:18;16.89;60.34
67192;HTU21D;54120;53.504;49.426;2023-04-25T07:13:44;16.98;60.18
67192;HTU21D;54120;53.504;49.426;2023-04-25T07:16:10;17.14;60.31
67192;HTU21D;54120;53.504;49.426;2023-04-25T07:18:37;17.29;58.74
67192;HTU21D;54120;53.504;49.426;2023-04-25T07:21:03;17.25;58.38
67192;HTU21D;54120;53.504;49.426;2023-04-25T07:23:29;17.33;58.99
67192;HTU21D;54120;53.504;49.426;2023-04-25T07:25:56;17.29;58.51
67192;HTU21D;54120;53.504;49.426;2023-04-25T07:28:22;17.19;59.32
67192;HTU21D;54120;53.504;49.426;2023-04-25T07:30:49;17.29;59.64
67192;HTU21D;54120;53.504;49.426;2023-04-25T07:33:16;17.35;57.94
67192;HTU21D;54120;53.504;49.426;2023-04-25T07:35:43;17.43;57.34
67192;HTU21D;54120;53.504;49.426;2023-04-25T07:38:10;17.52;57.20
67192;HTU21D;54120;53.504;49.426;2023-04-25T07:40:37;17.70;57.77
67192;HTU21D;54120;53.504;49.426;2023-04-25T07:43:03;17.84;56.06
67192;HTU21D;54120;53.504;49.426;2023-04-25T07:45:29;18.06;55.44
67192;HTU21D;54120;53.504;49.426;2023-04-25T07:47:55;17.91;54.45
67192;HTU21D;54120;53.504;49.426;2023-04-25T07:50:22;17.88;54.05
67192;HTU21D;54120;53.504;49.426;2023-04-25T07:52:48;17.99;54.26
67192;HTU21D;54120;53.504;49.426;2023-04-25T07:55:14;18.00;54.04
67192;HTU21D;54120;53.504;49.426;2023-04-25T07:57:40;18.02;53.94
67192;HTU21D;54120;53.504;49.426;2023-04-25T08:00:07;18.17;55.19
67192;HTU21D;54120;53.504;49.426;2023-04-25T08:02:37;18.05;54.44
67192;HTU21D;54120;53.504;49.426;2023-04-25T08:05:03;18.05;54.94
67192;HTU21D;54120;53.504;49.426;2023-04-25T08:07:30;17.94;55.05
67192;HTU21D;54120;53.504;49.426;2023-04-25T08:09:56;18.10;55.14
67192;HTU21D;54120;53.504;49.426;2023-04-25T08:12:22;18.19;54.42
67192;HTU21D;54120;53.504;49.426;2023-04-25T08:14:48;18.04;54.27
67192;HTU21D;54120;53.504;49.426;2023-04-25T08:17:14;18.13;54.71
67192;HTU21D;54120;53.504;49.426;2023-04-25T08:19:40;18.23;54.75
67192;HTU21D;54120;53.504;49.426;2023-04-25T08:22:07;17.99;54.78
67192;HTU21D;54120;53.504;49.426;2023-04-25T08:24:33;17.98;55.35
67192;HTU21D;54120;53.504;49.426;2023-04-25T08:26:59;18.05;54.85
67192;HTU21D;54120;53.504;49.426;2023-04-25T08:29:25;18.06;54.34
67192;HTU21D;54120;53.504;49.426;2023-04-25T08:31:51;17.89;54.97
67192;HTU21D;54120;53.504;49.426;2023-04-25T08:34:18;17.76;55.84
67192;HTU21D;54120;53.504;49.426;2023-04-25T08:36:45;17.77;56.90
67192;HTU21D;54120;53.504;49.426;2023-04-25T08:39:11;17.78;57.25
67192;HTU21D;54120;53.504;49.426;2023-04-25T08:41:40;17.87;57.11
67192;HTU21D;54120;53.504;49.426;2023-04-25T08:44:10;17.68;57.13
67192;HTU21D;54120;53.504;49.426;2023-04-25T08:46:40;17.52;58.48
67192;HTU21D;54120;53.504;49.426;2023-04-25T08:49:07;17.49;58.70
67192;HTU21D;54120;53.504;49.426;2023-04-25T08:51:36;17.33;58.70
67192;HTU21D;54120;53.504;49.426;2023-04-25T08:54:10;17.41;58.35
67192;HTU21D;54120;53.504;49.426;2023-04-25T08:56:45;17.31;58.48
67192;HTU21D;54120;53.504;49.426;2023-04-25T08:59:12;17.30;59.55
67192;HTU21D;54120;53.504;49.426;2023-04-25T09:01:38;17.37;58.49
67192;HTU21D;54120;53.504;49.426;2023-04-25T09:04:04;17.60;59.83
67192;HTU21D;54120;53.504;49.426;2023-04-25T09:06:32;17.80;59.98
67192;HTU21D;54120;53.504;49.426;2023-04-25T09:09:06;17.99;57.67
67192;HTU21D;54120;53.504;49.426;2023-04-25T09:11:33;17.92;58.77
67192;HTU21D;54120;53.504;49.426;2023-04-25T09:14:17;17.89;60.34
67192;HTU21D;54120;53.504;49.426;2023-04-25T09:17:13;17.94;59.60
67192;HTU21D;54120;53.504;49.426;2023-04-25T09:19:39;17.91;58.45
67192;HTU21D;54120;53.504;49.426;2023-04-25T09:22:06;17.77;57.75
67192;HTU21D;54120;53.504;49.426;2023-04-25T09:24:44;17.78;58.15
67192;HTU21D;54120;53.504;49.426;2023-04-25T09:27:18;17.77;58.14
67192;HTU21D;54120;53.504;49.426;2023-04-25T09:29:45;17.90;60.38
67192;HTU21D;54120;53.504;49.426;2023-04-25T09:32:16;17.92;56.94
67192;HTU21D;54120;53.504;49.426;2023-04-25T09:34:48;17.92;56.44
67192;HTU21D;54120;53.504;49.426;2023-04-25T09:37:29;18.00;56.97
67192;HTU21D;54120;53.504;49.426;2023-04-25T09:40:00;18.04;57.64
67192;HTU21D;54120;53.504;49.426;2023-04-25T09:42:29;18.08;57.44
67192;HTU21D;54120;53.504;49.426;2023-04-25T09:44:58;18.07;58.64
67192;HTU21D;54120;53.504;49.426;2023-04-25T09:47:26;18.05;58.36
67192;HTU21D;54120;53.504;49.426;2023-04-25T09:49:55;17.77;58.92
67192;HTU21D;54120;53.504;49.426;2023-04-25T09:52:23;17.59;59.00
67192;HTU21D;54120;53.504;49.426;2023-04-25T09:54:50;17.38;58.22
67192;HTU21D;54120;53.504;49.426;2023-04-25T09:57:19;17.34;57.23
67192;HTU21D;54120;53.504;49.426;2023-04-25T09:59:48;17.56;59.25
67192;HTU21D;54120;53.504;49.426;2023-04-25T10:02:22;17.54;56.69
67192;HTU21D;54120;53.504;49.426;2023-04-25T10:04:50;17.39;58.76
67192;HTU21D;54120;53.504;49.426;2023-04-25T10:07:19;17.36;57.76
67192;HTU21D;54120;53.504;49.426;2023-04-25T10:09:48;17.45;57.85
67192;HTU21D;54120;53.504;49.426;2023-04-25T10:12:16;17.38;58.48
67192;HTU21D;54120;53.504;49.426;2023-04-25T10:14:44;17.49;58.44
67192;HTU21D;54120;53.504;49.426;2023-04-25T10:17:11;17.33;59.50
67192;HTU21D;54120;53.504;49.426;2023-04-25T10:19:39;17.19;60.33
67192;HTU21D;54120;53.504;49.426;2023-04-25T10:24:46;16.79;63.25
67192;HTU21D;54120;53.504;49.426;2023-04-25T10:27:13;16.63;64.68
67192;HTU21D;54120;53.504;49.426;2023-04-25T10:29:41;16.65;63.92
67192;HTU21D;54120;53.504;49.426;2023-04-25T10:32:10;16.69;64.46
67192;HTU21D;54120;53.504;49.426;2023-04-25T10:34:41;16.67;63.95
67192;HTU21D;54120;53.504;49.426;2023-04-25T10:37:12;16.48;65.21
67192;HTU21D;54120;53.504;49.426;2023-04-25T10:39:40;16.61;66.04
67192;HTU21D;54120;53.504;49.426;2023-04-25T10:42:07;16.52;65.77
67192;HTU21D;54120;53.504;49.426;2023-04-25T10:44:37;16.48;65.93
67192;HTU21D;54120;53.504;49.426;2023-04-25T10:47:06;16.56;66.08
67192;HTU21D;54120;53.504;49.426;2023-04-25T10:49:38;16.64;67.01
67192;HTU21D;54120;53.504;49.426;2023-04-25T10:52:15;16.66;65.08
67192;HTU21D;54120;53.504;49.426;2023-04-25T10:55:02;16.45;67.63
67192;HTU21D;54120;53.504;49.426;2023-04-25T10:57:45;16.40;67.44
67192;HTU21D;54120;53.504;49.426;2023-04-25T11:02:42;16.27;68.48
67192;HTU21D;54120;53.504;49.426;2023-04-25T11:05:27;16.31;67.88
67192;HTU21D;54120;53.504;49.426;2023-04-25T11:07:55;16.33;67.29
67192;HTU21D;54120;53.504;49.426;2023-04-25T11:10:27;16.13;67.61
67192;HTU21D;54120;53.504;49.426;2023-04-25T11:12:53;16.03;69.28
67192;HTU21D;54120;53.504;49.426;2023-04-25T11:15:19;16.14;69.39
67192;HTU21D;54120;53.504;49.426;2023-04-25T11:17:45;16.24;72.19
67192;HTU21D;54120;53.504;49.426;2023-04-25T11:20:13;16.15;69.82
67192;HTU21D;54120;53.504;49.426;2023-04-25T11:22:41;16.18;68.80
67192;HTU21D;54120;53.504;49.426;2023-04-25T11:25:11;16.18;69.27
67192;HTU21D;54120;53.504;49.426;2023-04-25T11:27:58;16.21;69.76
67192;HTU21D;54120;53.504;49.426;2023-04-25T11:30:26;15.95;70.12
67192;HTU21D;54120;53.504;49.426;2023-04-25T11:32:53;15.89;70.43
67192;HTU21D;54120;53.504;49.426;2023-04-25T11:35:19;15.88;71.58
67192;HTU21D;54120;53.504;49.426;2023-04-25T11:37:49;15.97;70.81
67192;HTU21D;54120;53.504;49.426;2023-04-25T11:40:16;16.05;70.29
67192;HTU21D;54120;53.504;49.426;2023-04-25T11:42:46;15.90;72.93
67192;HTU21D;54120;53.504;49.426;2023-04-25T11:45:13;15.88;74.02
67192;HTU21D;54120;53.504;49.426;2023-04-25T11:47:40;15.80;74.15
67192;HTU21D;54120;53.504;49.426;2023-04-25T11:50:07;15.68;75.25
67192;HTU21D;54120;53.504;49.426;2023-04-25T11:52:39;15.51;74.53
67192;HTU21D;54120;53.504;49.426;2023-04-25T11:55:09;15.40;74.83
67192;HTU21D;54120;53.504;49.426;2023-04-25T11:57:38;15.28;76.14
67192;HTU21D;54120;53.504;49.426;2023-04-25T12:00:17;15.30;76.86
67192;HTU21D;54120;53.504;49.426;2023-04-25T12:02:51;15.18;75.59
67192;HTU21D;54120;53.504;49.426;2023-04-25T12:05:18;15.16;76.42
67192;HTU21D;54120;53.504;49.426;2023-04-25T12:07:46;15.15;75.99
67192;HTU21D;54120;53.504;49.426;2023-04-25T12:10:15;15.14;75.96
67192;HTU21D;54120;53.504;49.426;2023-04-25T12:12:44;15.07;77.70
67192;HTU21D;54120;53.504;49.426;2023-04-25T12:17:52;14.96;77.50
67192;HTU21D;54120;53.504;49.426;2023-04-25T12:20:23;14.95;77.51
67192;HTU21D;54120;53.504;49.426;2023-04-25T12:22:50;14.96;78.47
67192;HTU21D;54120;53.504;49.426;2023-04-25T12:25:38;14.96;77.33
67192;HTU21D;54120;53.504;49.426;2023-04-25T12:28:25;14.99;78.01
67192;HTU21D;54120;53.504;49.426;2023-04-25T12:33:24;14.95;78.16
67192;HTU21D;54120;53.504;49.426;2023-04-25T12:35:52;14.86;79.66
67192;HTU21D;54120;53.504;49.426;2023-04-25T12:38:29;14.75;81.14
67192;HTU21D;54120;53.504;49.426;2023-04-25T12:40:58;14.70;82.75
67192;HTU21D;54120;53.504;49.426;2023-04-25T12:43:24;14.63;84.00
67192;HTU21D;54120;53.504;49.426;2023-04-25T12:45:55;14.56;84.43
67192;HTU21D;54120;53.504;49.426;2023-04-25T12:48:22;14.51;84.78
67192;HTU21D;54120;53.504;49.426;2023-04-25T12:50:49;14.43;85.94
67192;HTU21D;54120;53.504;49.426;2023-04-25T12:53:19;14.40;86.71
67192;HTU21D;54120;53.504;49.426;2023-04-25T12:55:46;14.35;87.08
67192;HTU21D;54120;53.504;49.426;2023-04-25T12:58:16;14.25;88.38
67192;HTU21D;54120;53.504;49.426;2023-04-25T13:00:43;14.20;89.39
67192;HTU21D;54120;53.504;49.426;2023-04-25T13:03:10;14.20;88.85
67192;HTU21D;54120;53.504;49.426;2023-04-25T13:05:37;14.15;88.47
67192;HTU21D;54120;53.504;49.426;2023-04-25T13:08:03;14.13;87.63
67192;HTU21D;54120;53.504;49.426;2023-04-25T13:10:30;14.13;87.54
67192;HTU21D;54120;53.504;49.426;2023-04-25T13:13:00;14.10;86.15
67192;HTU21D;54120;53.504;49.426;2023-04-25T13:15:27;14.14;87.12
67192;HTU21D;54120;53.504;49.426;2023-04-25T13:17:53;14.14;87.41
67192;HTU21D;54120;53.504;49.426;2023-04-25T13:20:20;14.17;88.94
67192;HTU21D;54120;53.504;49.426;2023-04-25T13:22:48;14.11;88.73
67192;HTU21D;54120;53.504;49.426;2023-04-25T13:25:14;14.05;88.75
67192;HTU21D;54120;53.504;49.426;2023-04-25T13:27:41;14.05;89.51
67192;HTU21D;54120;53.504;49.426;2023-04-25T13:30:07;14.00;89.91
67192;HTU21D;54120;53.504;49.426;2023-04-25T13:32:35;13.94;90.50
67192;HTU21D;54120;53.504;49.426;2023-04-25T13:35:09;14.01;90.25
67192;HTU21D;54120;53.504;49.426;2023-04-25T13:37:36;14.10;89.72
67192;HTU21D;54120;53.504;49.426;2023-04-25T13:40:05;14.20;89.77
67192;HTU21D;54120;53.504;49.426;2023-04-25T13:42:36;14.21;89.89
67192;HTU21D;54120;53.504;49.426;2023-04-25T13:45:02;14.09;89.25
67192;HTU21D;54120;53.504;49.426;2023-04-25T13:47:29;14.07;90.12
67192;HTU21D;54120;53.504;49.426;2023-04-25T13:49:58;14.01;90.95
67192;HTU21D;54120;53.504;49.426;2023-04-25T13:52:24;14.08;91.19
67192;HTU21D;54120;53.504;49.426;2023-04-25T13:54:50;14.07;91.13
67192;HTU21D;54120;53.504;49.426;2023-04-25T13:57:18;13.97;91.13
67192;HTU21D;54120;53.504;49.426;2023-04-25T13:59:45;13.91;92.22
67192;HTU21D;54120;53.504;49.426;2023-04-25T14:02:15;13.88;93.60
67192;HTU21D;54120;53.504;49.426;2023-04-25T14:04:42;13.89;93.95
67192;HTU21D;54120;53.504;49.426;2023-04-25T14:07:08;13.81;93.91
67192;HTU21D;54120;53.504;49.426;2023-04-25T14:09:36;13.74;94.59
67192;HTU21D;54120;53.504;49.426;2023-04-25T14:12:02;13.63;95.12
67192;HTU21D;54120;53.504;49.426;2023-04-25T14:14:29;13.58;95.80
67192;HTU21D;54120;53.504;49.426;2023-04-25T14:16:55;13.56;96.72
67192;HTU21D;54120;53.504;49.426;2023-04-25T14:19:23;13.46;97.28
67192;HTU21D;54120;53.504;49.426;2023-04-25T14:21:50;13.33;98.95
67192;HTU21D;54120;53.504;49.426;2023-04-25T14:24:16;13.29;99.61
67192;HTU21D;54120;53.504;49.426;2023-04-25T14:26:43;13.25;99.60
67192;HTU21D;54120;53.504;49.426;2023-04-25T14:29:10;13.25;99.06
67192;HTU21D;54120;53.504;49.426;2023-04-25T14:31:39;13.24;98.53
67192;HTU21D;54120;53.504;49.426;2023-04-25T14:34:06;13.21;97.90
67192;HTU21D;54120;53.504;49.426;2023-04-25T14:36:33;13.19;98.26
67192;HTU21D;54120;53.504;49.426;2023-04-25T14:39:00;13.17;99.00
67192;HTU21D;54120;53.504;49.426;2023-04-25T14:41:27;13.21;99.46
67192;HTU21D;54120;53.504;49.426;2023-04-25T14:43:53;13.21;99.23
67192;HTU21D;54120;53.504;49.426;2023-04-25T14:46:21;13.22;99.55
67192;HTU21D;54120;53.504;49.426;2023-04-25T14:48:48;13.20;99.35
67192;HTU21D;54120;53.504;49.426;2023-04-25T14:51:15;13.20;99.86
67192;HTU21D;54120;53.504;49.426;2023-04-25T14:53:41;13.15;100.06
67192;HTU21D;54120;53.504;49.426;2023-04-25T14:56:08;13.12;100.64
67192;HTU21D;54120;53.504;49.426;2023-04-25T14:58:34;13.11;100.38
67192;HTU21D;54120;53.504;49.426;2023-04-25T15:01:01;13.12;100.21
67192;HTU21D;54120;53.504;49.426;2023-04-25T15:03:27;13.14;99.73
67192;HTU21D;54120;53.504;49.426;2023-04-25T15:05:55;13.11;100.32
67192;HTU21D;54120;53.504;49.426;2023-04-25T15:08:21;13.09;100.67
67192;HTU21D;54120;53.504;49.426;2023-04-25T15:10:48;13.05;101.22
67192;HTU21D;54120;53.504;49.426;2023-04-25T15:13:14;13.03;102.07
67192;HTU21D;54120;53.504;49.426;2023-04-25T15:15:42;13.02;102.54